sensor_id;sensor_type;location;lat;lon;timestamp;P1;durP1;ratioP1;P2;durP2;ratioP2
59294;SDS011;45067;44.654;20.200;2022-12-24T00:01:04;59.25;;;30.98;;
59294;SDS011;45067;44.654;20.200;2022-12-24T00:09:44;50.13;;;28.65;;
59294;SDS011;45067;44.654;20.200;2022-12-24T00:12:18;54.38;;;28.35;;
59294;SDS011;45067;44.654;20.200;2022-12-24T00:14:46;50.45;;;28.15;;
59294;SDS011;45067;44.654;20.200;2022-12-24T00:17:15;55.03;;;30.77;;
59294;SDS011;45067;44.654;20.200;2022-12-24T00:22:44;49.55;;;29.08;;
59294;SDS011;45067;44.654;20.200;2022-12-24T00:25:12;54.33;;;30.58;;
59294;SDS011;45067;44.654;20.200;2022-12-24T00:27:38;53.33;;;31.05;;
59294;SDS011;45067;44.654;20.200;2022-12-24T00:30:04;53.35;;;30.10;;
59294;SDS011;45067;44.654;20.200;2022-12-24T00:32:49;45.95;;;27.88;;
59294;SDS011;45067;44.654;20.200;2022-12-24T00:35:24;47.40;;;27.80;;
59294;SDS011;45067;44.654;20.200;2022-12-24T00:38:30;48.13;;;26.23;;
59294;SDS011;45067;44.654;20.200;2022-12-24T00:41:32;43.30;;;24.77;;
59294;SDS011;45067;44.654;20.200;2022-12-24T00:44:05;46.10;;;25.83;;
59294;SDS011;45067;44.654;20.200;2022-12-24T00:46:53;44.92;;;26.73;;
59294;SDS011;45067;44.654;20.200;2022-12-24T00:52:31;44.80;;;26.70;;
59294;SDS011;45067;44.654;20.200;2022-12-24T00:55:20;45.22;;;26.08;;
59294;SDS011;45067;44.654;20.200;2022-12-24T01:00:50;45.27;;;26.87;;
59294;SDS011;45067;44.654;20.200;2022-12-24T01:03:16;42.42;;;23.90;;
59294;SDS011;45067;44.654;20.200;2022-12-24T01:05:50;44.38;;;26.30;;
59294;SDS011;45067;44.654;20.200;2022-12-24T01:08:29;38.47;;;22.10;;
59294;SDS011;45067;44.654;20.200;2022-12-24T01:11:05;40.08;;;23.67;;
59294;SDS011;45067;44.654;20.200;2022-12-24T01:13:32;39.78;;;22.95;;
59294;SDS011;45067;44.654;20.200;2022-12-24T01:19:03;37.30;;;21.17;;
59294;SDS011;45067;44.654;20.200;2022-12-24T01:21:39;37.67;;;21.73;;
59294;SDS011;45067;44.654;20.200;2022-12-24T01:24:14;34.78;;;20.63;;
59294;SDS011;45067;44.654;20.200;2022-12-24T01:27:04;35.20;;;19.42;;
59294;SDS011;45067;44.654;20.200;2022-12-24T01:29:59;33.58;;;19.88;;
59294;SDS011;45067;44.654;20.200;2022-12-24T01:32:44;33.25;;;19.63;;
59294;SDS011;45067;44.654;20.200;2022-12-24T01:35:39;38.53;;;21.95;;
59294;SDS011;45067;44.654;20.200;2022-12-24T01:38:09;32.33;;;19.23;;
59294;SDS011;45067;44.654;20.200;2022-12-24T01:40:37;34.65;;;20.48;;
59294;SDS011;45067;44.654;20.200;2022-12-24T01:46:17;33.60;;;18.48;;
59294;SDS011;45067;44.654;20.200;2022-12-24T01:48:48;35.17;;;20.13;;
59294;SDS011;45067;44.654;20.200;2022-12-24T01:51:36;31.30;;;19.50;;
59294;SDS011;45067;44.654;20.200;2022-12-24T01:54:10;32.17;;;18.73;;
59294;SDS011;45067;44.654;20.200;2022-12-24T01:56:42;30.90;;;18.80;;
59294;SDS011;45067;44.654;20.200;2022-12-24T01:59:37;34.30;;;19.95;;
59294;SDS011;45067;44.654;20.200;2022-12-24T02:02:04;31.20;;;19.02;;
59294;SDS011;45067;44.654;20.200;2022-12-24T02:07:17;28.05;;;18.25;;
59294;SDS011;45067;44.654;20.200;2022-12-24T02:09:50;30.90;;;18.58;;
59294;SDS011;45067;44.654;20.200;2022-12-24T02:12:19;31.17;;;19.15;;
59294;SDS011;45067;44.654;20.200;2022-12-24T02:14:48;34.33;;;19.13;;
59294;SDS011;45067;44.654;20.200;2022-12-24T02:34:33;29.08;;;17.45;;
59294;SDS011;45067;44.654;20.200;2022-12-24T02:37:07;30.75;;;18.45;;
59294;SDS011;45067;44.654;20.200;2022-12-24T02:42:26;33.53;;;19.40;;
59294;SDS011;45067;44.654;20.200;2022-12-24T02:48:02;38.55;;;20.73;;
59294;SDS011;45067;44.654;20.200;2022-12-24T02:50:34;32.90;;;19.60;;
59294;SDS011;45067;44.654;20.200;2022-12-24T02:53:01;33.53;;;19.23;;
59294;SDS011;45067;44.654;20.200;2022-12-24T03:01:51;29.20;;;17.33;;
59294;SDS011;45067;44.654;20.200;2022-12-24T03:10:23;31.05;;;17.27;;
59294;SDS011;45067;44.654;20.200;2022-12-24T03:12:55;36.08;;;19.90;;
59294;SDS011;45067;44.654;20.200;2022-12-24T03:15:23;34.40;;;18.48;;
59294;SDS011;45067;44.654;20.200;2022-12-24T03:17:52;31.80;;;17.70;;
59294;SDS011;45067;44.654;20.200;2022-12-24T03:20:24;32.50;;;19.48;;
59294;SDS011;45067;44.654;20.200;2022-12-24T03:22:51;33.85;;;19.02;;
59294;SDS011;45067;44.654;20.200;2022-12-24T03:25:17;33.08;;;20.35;;
59294;SDS011;45067;44.654;20.200;2022-12-24T03:27:44;33.42;;;20.55;;
59294;SDS011;45067;44.654;20.200;2022-12-24T03:30:11;33.35;;;19.58;;
59294;SDS011;45067;44.654;20.200;2022-12-24T03:32:38;30.42;;;19.65;;
59294;SDS011;45067;44.654;20.200;2022-12-24T03:35:05;33.38;;;21.35;;
59294;SDS011;45067;44.654;20.200;2022-12-24T03:37:31;34.47;;;21.15;;
59294;SDS011;45067;44.654;20.200;2022-12-24T03:39:57;44.50;;;25.70;;
59294;SDS011;45067;44.654;20.200;2022-12-24T03:42:23;43.38;;;25.63;;
59294;SDS011;45067;44.654;20.200;2022-12-24T03:44:49;37.25;;;23.23;;
59294;SDS011;45067;44.654;20.200;2022-12-24T03:47:16;36.70;;;22.27;;
59294;SDS011;45067;44.654;20.200;2022-12-24T03:49:42;32.85;;;20.95;;
59294;SDS011;45067;44.654;20.200;2022-12-24T03:52:08;34.85;;;21.48;;
59294;SDS011;45067;44.654;20.200;2022-12-24T03:54:34;33.53;;;19.85;;
59294;SDS011;45067;44.654;20.200;2022-12-24T03:57:00;25.98;;;15.52;;
59294;SDS011;45067;44.654;20.200;2022-12-24T03:59:26;32.42;;;20.17;;
59294;SDS011;45067;44.654;20.200;2022-12-24T04:01:52;27.70;;;17.77;;
59294;SDS011;45067;44.654;20.200;2022-12-24T04:04:20;31.52;;;19.10;;
59294;SDS011;45067;44.654;20.200;2022-12-24T04:06:49;32.83;;;20.85;;
59294;SDS011;45067;44.654;20.200;2022-12-24T04:09:15;34.33;;;20.88;;
59294;SDS011;45067;44.654;20.200;2022-12-24T04:11:46;37.03;;;21.40;;
59294;SDS011;45067;44.654;20.200;2022-12-24T04:14:21;35.20;;;21.48;;
59294;SDS011;45067;44.654;20.200;2022-12-24T04:16:51;31.17;;;20.13;;
59294;SDS011;45067;44.654;20.200;2022-12-24T04:22:21;34.78;;;20.30;;
59294;SDS011;45067;44.654;20.200;2022-12-24T04:24:48;32.88;;;19.17;;
59294;SDS011;45067;44.654;20.200;2022-12-24T04:27:32;30.65;;;19.27;;
59294;SDS011;45067;44.654;20.200;2022-12-24T04:29:59;35.10;;;21.60;;
59294;SDS011;45067;44.654;20.200;2022-12-24T04:32:32;39.95;;;20.40;;
59294;SDS011;45067;44.654;20.200;2022-12-24T04:35:06;32.83;;;20.00;;
59294;SDS011;45067;44.654;20.200;2022-12-24T04:37:35;28.38;;;18.05;;
59294;SDS011;45067;44.654;20.200;2022-12-24T04:40:15;30.88;;;17.88;;
59294;SDS011;45067;44.654;20.200;2022-12-24T04:42:43;26.02;;;16.08;;
59294;SDS011;45067;44.654;20.200;2022-12-24T04:45:21;32.08;;;16.98;;
59294;SDS011;45067;44.654;20.200;2022-12-24T04:47:50;30.08;;;15.70;;
59294;SDS011;45067;44.654;20.200;2022-12-24T04:53:44;25.17;;;15.98;;
59294;SDS011;45067;44.654;20.200;2022-12-24T05:02:05;20.80;;;14.00;;
59294;SDS011;45067;44.654;20.200;2022-12-24T05:08:04;18.08;;;12.30;;
59294;SDS011;45067;44.654;20.200;2022-12-24T05:10:54;18.95;;;10.95;;
59294;SDS011;45067;44.654;20.200;2022-12-24T05:16:05;26.38;;;13.30;;
59294;SDS011;45067;44.654;20.200;2022-12-24T05:18:46;23.15;;;13.52;;
59294;SDS011;45067;44.654;20.200;2022-12-24T05:21:17;22.35;;;14.25;;
59294;SDS011;45067;44.654;20.200;2022-12-24T05:23:53;17.25;;;11.40;;
59294;SDS011;45067;44.654;20.200;2022-12-24T05:29:04;18.80;;;11.20;;
59294;SDS011;45067;44.654;20.200;2022-12-24T05:31:32;21.40;;;13.07;;
59294;SDS011;45067;44.654;20.200;2022-12-24T05:34:03;21.38;;;12.25;;
59294;SDS011;45067;44.654;20.200;2022-12-24T05:36:29;22.33;;;14.15;;
59294;SDS011;45067;44.654;20.200;2022-12-24T05:38:55;25.77;;;14.48;;
59294;SDS011;45067;44.654;20.200;2022-12-24T05:41:23;24.40;;;13.40;;
59294;SDS011;45067;44.654;20.200;2022-12-24T05:44:07;23.05;;;14.23;;
59294;SDS011;45067;44.654;20.200;2022-12-24T05:46:33;23.30;;;13.25;;
59294;SDS011;45067;44.654;20.200;2022-12-24T05:48:59;22.38;;;11.98;;
59294;SDS011;45067;44.654;20.200;2022-12-24T05:54:48;21.63;;;13.60;;
59294;SDS011;45067;44.654;20.200;2022-12-24T05:57:15;21.95;;;12.90;;
59294;SDS011;45067;44.654;20.200;2022-12-24T05:59:42;23.00;;;13.73;;
59294;SDS011;45067;44.654;20.200;2022-12-24T06:02:12;22.38;;;14.32;;
59294;SDS011;45067;44.654;20.200;2022-12-24T06:04:39;22.92;;;13.27;;
59294;SDS011;45067;44.654;20.200;2022-12-24T06:07:06;20.83;;;13.02;;
59294;SDS011;45067;44.654;20.200;2022-12-24T06:12:51;24.85;;;13.70;;
59294;SDS011;45067;44.654;20.200;2022-12-24T06:15:24;21.05;;;13.60;;
59294;SDS011;45067;44.654;20.200;2022-12-24T06:17:59;26.00;;;13.98;;
59294;SDS011;45067;44.654;20.200;2022-12-24T06:23:32;25.48;;;15.95;;
59294;SDS011;45067;44.654;20.200;2022-12-24T06:32:17;42.50;;;24.67;;
59294;SDS011;45067;44.654;20.200;2022-12-24T06:34:48;54.28;;;32.25;;
59294;SDS011;45067;44.654;20.200;2022-12-24T06:37:14;47.08;;;26.52;;
59294;SDS011;45067;44.654;20.200;2022-12-24T06:39:45;48.50;;;25.33;;
59294;SDS011;45067;44.654;20.200;2022-12-24T06:42:17;50.60;;;26.38;;
59294;SDS011;45067;44.654;20.200;2022-12-24T06:44:53;41.83;;;25.13;;
59294;SDS011;45067;44.654;20.200;2022-12-24T06:47:59;51.65;;;29.08;;
59294;SDS011;45067;44.654;20.200;2022-12-24T06:50:27;58.28;;;32.55;;
59294;SDS011;45067;44.654;20.200;2022-12-24T06:53:32;61.25;;;35.13;;
59294;SDS011;45067;44.654;20.200;2022-12-24T06:56:24;58.67;;;33.00;;
59294;SDS011;45067;44.654;20.200;2022-12-24T07:01:41;61.78;;;35.55;;
59294;SDS011;45067;44.654;20.200;2022-12-24T07:04:11;63.00;;;35.13;;
59294;SDS011;45067;44.654;20.200;2022-12-24T07:09:51;63.25;;;35.17;;
59294;SDS011;45067;44.654;20.200;2022-12-24T07:12:25;58.65;;;33.88;;
59294;SDS011;45067;44.654;20.200;2022-12-24T07:14:58;55.35;;;31.50;;
59294;SDS011;45067;44.654;20.200;2022-12-24T07:20:47;52.88;;;30.20;;
59294;SDS011;45067;44.654;20.200;2022-12-24T07:23:19;45.17;;;27.40;;
59294;SDS011;45067;44.654;20.200;2022-12-24T07:26:04;44.10;;;25.75;;
59294;SDS011;45067;44.654;20.200;2022-12-24T07:40:57;30.50;;;19.30;;
59294;SDS011;45067;44.654;20.200;2022-12-24T07:43:26;30.10;;;17.85;;
59294;SDS011;45067;44.654;20.200;2022-12-24T07:45:56;30.17;;;19.08;;
59294;SDS011;45067;44.654;20.200;2022-12-24T07:48:34;27.30;;;17.85;;
59294;SDS011;45067;44.654;20.200;2022-12-24T07:51:00;29.77;;;18.33;;
59294;SDS011;45067;44.654;20.200;2022-12-24T07:53:27;28.40;;;17.20;;
59294;SDS011;45067;44.654;20.200;2022-12-24T07:55:54;27.35;;;17.60;;
59294;SDS011;45067;44.654;20.200;2022-12-24T07:58:20;26.33;;;16.88;;
59294;SDS011;45067;44.654;20.200;2022-12-24T08:00:57;26.02;;;16.35;;
59294;SDS011;45067;44.654;20.200;2022-12-24T08:03:24;28.83;;;17.10;;
59294;SDS011;45067;44.654;20.200;2022-12-24T08:05:50;28.48;;;17.20;;
59294;SDS011;45067;44.654;20.200;2022-12-24T08:08:18;26.20;;;17.85;;
59294;SDS011;45067;44.654;20.200;2022-12-24T08:10:45;28.48;;;18.33;;
59294;SDS011;45067;44.654;20.200;2022-12-24T08:13:15;29.42;;;18.10;;
59294;SDS011;45067;44.654;20.200;2022-12-24T08:15:55;28.98;;;19.35;;
59294;SDS011;45067;44.654;20.200;2022-12-24T08:18:45;28.73;;;18.38;;
59294;SDS011;45067;44.654;20.200;2022-12-24T08:21:21;28.48;;;16.25;;
59294;SDS011;45067;44.654;20.200;2022-12-24T08:23:51;26.58;;;16.40;;
59294;SDS011;45067;44.654;20.200;2022-12-24T08:26:17;27.38;;;16.33;;
59294;SDS011;45067;44.654;20.200;2022-12-24T08:28:44;26.27;;;17.00;;
59294;SDS011;45067;44.654;20.200;2022-12-24T08:31:10;27.40;;;15.73;;
59294;SDS011;45067;44.654;20.200;2022-12-24T08:33:36;20.35;;;14.50;;
59294;SDS011;45067;44.654;20.200;2022-12-24T08:36:02;25.15;;;15.20;;
59294;SDS011;45067;44.654;20.200;2022-12-24T08:38:47;22.88;;;13.68;;
59294;SDS011;45067;44.654;20.200;2022-12-24T08:41:17;30.58;;;17.25;;
59294;SDS011;45067;44.654;20.200;2022-12-24T08:43:43;31.15;;;17.13;;
59294;SDS011;45067;44.654;20.200;2022-12-24T08:46:09;29.05;;;18.05;;
59294;SDS011;45067;44.654;20.200;2022-12-24T08:48:36;26.60;;;18.17;;
59294;SDS011;45067;44.654;20.200;2022-12-24T08:54:35;28.60;;;16.92;;
59294;SDS011;45067;44.654;20.200;2022-12-24T09:00:39;27.17;;;16.00;;
59294;SDS011;45067;44.654;20.200;2022-12-24T09:03:11;22.95;;;14.48;;
59294;SDS011;45067;44.654;20.200;2022-12-24T09:05:45;31.67;;;17.73;;
59294;SDS011;45067;44.654;20.200;2022-12-24T09:08:18;25.60;;;16.17;;
59294;SDS011;45067;44.654;20.200;2022-12-24T09:10:46;25.90;;;15.67;;
59294;SDS011;45067;44.654;20.200;2022-12-24T09:13:22;27.15;;;15.98;;
59294;SDS011;45067;44.654;20.200;2022-12-24T09:15:53;26.30;;;16.65;;
59294;SDS011;45067;44.654;20.200;2022-12-24T09:18:19;27.30;;;16.58;;
59294;SDS011;45067;44.654;20.200;2022-12-24T09:20:58;27.73;;;17.75;;
59294;SDS011;45067;44.654;20.200;2022-12-24T09:23:30;28.48;;;17.58;;
59294;SDS011;45067;44.654;20.200;2022-12-24T09:26:08;31.52;;;19.73;;
59294;SDS011;45067;44.654;20.200;2022-12-24T09:28:34;32.22;;;20.02;;
59294;SDS011;45067;44.654;20.200;2022-12-24T09:31:01;34.63;;;20.05;;
59294;SDS011;45067;44.654;20.200;2022-12-24T09:33:34;36.75;;;20.17;;
59294;SDS011;45067;44.654;20.200;2022-12-24T09:36:00;30.85;;;20.02;;
59294;SDS011;45067;44.654;20.200;2022-12-24T09:38:27;33.38;;;20.25;;
59294;SDS011;45067;44.654;20.200;2022-12-24T09:44:00;37.72;;;22.75;;
59294;SDS011;45067;44.654;20.200;2022-12-24T09:46:46;39.90;;;23.40;;
59294;SDS011;45067;44.654;20.200;2022-12-24T09:52:26;42.03;;;24.98;;
59294;SDS011;45067;44.654;20.200;2022-12-24T09:55:24;44.72;;;25.48;;
59294;SDS011;45067;44.654;20.200;2022-12-24T09:57:57;50.30;;;26.45;;
59294;SDS011;45067;44.654;20.200;2022-12-24T10:00:28;44.83;;;27.38;;
59294;SDS011;45067;44.654;20.200;2022-12-24T10:02:55;44.83;;;26.02;;
59294;SDS011;45067;44.654;20.200;2022-12-24T10:05:32;51.33;;;26.65;;
59294;SDS011;45067;44.654;20.200;2022-12-24T10:10:57;43.70;;;26.40;;
59294;SDS011;45067;44.654;20.200;2022-12-24T10:13:35;42.55;;;24.83;;
59294;SDS011;45067;44.654;20.200;2022-12-24T10:23:36;45.38;;;25.58;;
59294;SDS011;45067;44.654;20.200;2022-12-24T10:26:12;43.40;;;25.48;;
59294;SDS011;45067;44.654;20.200;2022-12-24T10:31:09;41.05;;;25.95;;
59294;SDS011;45067;44.654;20.200;2022-12-24T10:33:38;37.42;;;23.02;;
59294;SDS011;45067;44.654;20.200;2022-12-24T10:36:11;42.70;;;24.27;;
59294;SDS011;45067;44.654;20.200;2022-12-24T10:38:42;36.05;;;23.25;;
59294;SDS011;45067;44.654;20.200;2022-12-24T10:41:08;43.10;;;26.50;;
59294;SDS011;45067;44.654;20.200;2022-12-24T10:43:34;38.20;;;23.15;;
59294;SDS011;45067;44.654;20.200;2022-12-24T10:46:03;35.92;;;22.10;;
59294;SDS011;45067;44.654;20.200;2022-12-24T10:48:37;32.78;;;21.77;;
59294;SDS011;45067;44.654;20.200;2022-12-24T10:51:05;37.90;;;23.10;;
59294;SDS011;45067;44.654;20.200;2022-12-24T10:53:58;34.22;;;21.65;;
59294;SDS011;45067;44.654;20.200;2022-12-24T10:56:25;32.75;;;21.63;;
59294;SDS011;45067;44.654;20.200;2022-12-24T10:58:52;39.20;;;24.67;;
59294;SDS011;45067;44.654;20.200;2022-12-24T11:04:03;31.17;;;20.48;;
59294;SDS011;45067;44.654;20.200;2022-12-24T11:06:29;33.08;;;21.08;;
59294;SDS011;45067;44.654;20.200;2022-12-24T11:08:55;32.35;;;20.98;;
59294;SDS011;45067;44.654;20.200;2022-12-24T11:11:36;34.90;;;22.75;;
59294;SDS011;45067;44.654;20.200;2022-12-24T11:14:02;34.35;;;22.52;;
59294;SDS011;45067;44.654;20.200;2022-12-24T11:16:33;36.17;;;22.20;;
59294;SDS011;45067;44.654;20.200;2022-12-24T11:19:00;36.78;;;23.25;;
59294;SDS011;45067;44.654;20.200;2022-12-24T11:21:28;35.47;;;22.48;;
59294;SDS011;45067;44.654;20.200;2022-12-24T11:23:55;37.90;;;21.90;;
59294;SDS011;45067;44.654;20.200;2022-12-24T11:26:23;31.70;;;20.70;;
59294;SDS011;45067;44.654;20.200;2022-12-24T11:31:48;31.48;;;20.25;;
59294;SDS011;45067;44.654;20.200;2022-12-24T11:36:46;35.13;;;22.25;;
59294;SDS011;45067;44.654;20.200;2022-12-24T11:39:19;35.13;;;23.02;;
59294;SDS011;45067;44.654;20.200;2022-12-24T11:41:46;39.67;;;23.92;;
59294;SDS011;45067;44.654;20.200;2022-12-24T11:44:13;38.17;;;24.33;;
59294;SDS011;45067;44.654;20.200;2022-12-24T11:46:41;34.88;;;22.15;;
59294;SDS011;45067;44.654;20.200;2022-12-24T11:49:21;38.65;;;25.00;;
59294;SDS011;45067;44.654;20.200;2022-12-24T11:57:10;43.22;;;27.48;;
59294;SDS011;45067;44.654;20.200;2022-12-24T11:59:41;44.03;;;27.40;;
59294;SDS011;45067;44.654;20.200;2022-12-24T12:04:45;45.00;;;26.38;;
59294;SDS011;45067;44.654;20.200;2022-12-24T12:10:31;36.65;;;24.55;;
59294;SDS011;45067;44.654;20.200;2022-12-24T12:12:42;38.78;;;25.20;;
59294;SDS011;45067;44.654;20.200;2022-12-24T12:15:11;37.97;;;25.70;;
59294;SDS011;45067;44.654;20.200;2022-12-24T12:20:31;39.35;;;25.30;;
59294;SDS011;45067;44.654;20.200;2022-12-24T12:25:58;38.20;;;25.92;;
59294;SDS011;45067;44.654;20.200;2022-12-24T12:28:31;38.63;;;25.73;;
59294;SDS011;45067;44.654;20.200;2022-12-24T12:31:20;34.75;;;23.63;;
59294;SDS011;45067;44.654;20.200;2022-12-24T12:33:48;38.95;;;24.17;;
59294;SDS011;45067;44.654;20.200;2022-12-24T12:36:17;39.22;;;25.58;;
59294;SDS011;45067;44.654;20.200;2022-12-24T12:38:44;41.97;;;26.08;;
59294;SDS011;45067;44.654;20.200;2022-12-24T12:51:27;39.50;;;27.52;;
59294;SDS011;45067;44.654;20.200;2022-12-24T12:56:45;41.33;;;27.63;;
59294;SDS011;45067;44.654;20.200;2022-12-24T13:09:30;53.83;;;31.13;;
59294;SDS011;45067;44.654;20.200;2022-12-24T13:19:56;42.78;;;27.90;;
59294;SDS011;45067;44.654;20.200;2022-12-24T13:22:20;43.20;;;27.92;;
59294;SDS011;45067;44.654;20.200;2022-12-24T13:24:53;47.67;;;28.92;;
59294;SDS011;45067;44.654;20.200;2022-12-24T13:27:22;43.05;;;28.60;;
59294;SDS011;45067;44.654;20.200;2022-12-24T13:29:53;39.58;;;26.70;;
59294;SDS011;45067;44.654;20.200;2022-12-24T13:50:36;44.58;;;30.70;;
59294;SDS011;45067;44.654;20.200;2022-12-24T13:53:03;44.90;;;28.67;;
59294;SDS011;45067;44.654;20.200;2022-12-24T13:55:30;45.00;;;29.33;;
59294;SDS011;45067;44.654;20.200;2022-12-24T13:58:03;44.20;;;28.17;;
59294;SDS011;45067;44.654;20.200;2022-12-24T14:00:31;45.85;;;29.02;;
59294;SDS011;45067;44.654;20.200;2022-12-24T14:03:06;53.97;;;32.75;;
59294;SDS011;45067;44.654;20.200;2022-12-24T14:08:08;49.20;;;29.02;;
59294;SDS011;45067;44.654;20.200;2022-12-24T14:10:38;43.78;;;28.98;;
59294;SDS011;45067;44.654;20.200;2022-12-24T14:13:04;46.15;;;30.83;;
59294;SDS011;45067;44.654;20.200;2022-12-24T14:18:09;42.80;;;30.52;;
59294;SDS011;45067;44.654;20.200;2022-12-24T14:20:35;49.88;;;31.10;;
59294;SDS011;45067;44.654;20.200;2022-12-24T14:23:02;50.15;;;31.83;;
59294;SDS011;45067;44.654;20.200;2022-12-24T14:25:29;51.65;;;33.58;;
59294;SDS011;45067;44.654;20.200;2022-12-24T14:28:05;55.90;;;35.00;;
59294;SDS011;45067;44.654;20.200;2022-12-24T14:30:38;58.53;;;36.63;;
59294;SDS011;45067;44.654;20.200;2022-12-24T14:33:25;51.75;;;32.50;;
59294;SDS011;45067;44.654;20.200;2022-12-24T14:35:52;48.85;;;32.53;;
59294;SDS011;45067;44.654;20.200;2022-12-24T14:38:18;55.78;;;36.13;;
59294;SDS011;45067;44.654;20.200;2022-12-24T14:43:37;60.92;;;40.92;;
59294;SDS011;45067;44.654;20.200;2022-12-24T14:51:31;62.78;;;42.38;;
59294;SDS011;45067;44.654;20.200;2022-12-24T14:56:38;65.85;;;41.65;;
59294;SDS011;45067;44.654;20.200;2022-12-24T14:59:19;71.70;;;43.90;;
59294;SDS011;45067;44.654;20.200;2022-12-24T15:01:45;76.63;;;47.55;;
59294;SDS011;45067;44.654;20.200;2022-12-24T15:06:39;69.32;;;45.25;;
59294;SDS011;45067;44.654;20.200;2022-12-24T15:09:13;66.10;;;41.92;;
59294;SDS011;45067;44.654;20.200;2022-12-24T15:11:45;66.05;;;44.55;;
59294;SDS011;45067;44.654;20.200;2022-12-24T15:14:13;69.05;;;44.83;;
59294;SDS011;45067;44.654;20.200;2022-12-24T15:16:47;59.78;;;41.45;;
59294;SDS011;45067;44.654;20.200;2022-12-24T15:19:26;63.75;;;40.90;;
59294;SDS011;45067;44.654;20.200;2022-12-24T15:21:53;53.67;;;36.15;;
59294;SDS011;45067;44.654;20.200;2022-12-24T15:26:49;59.20;;;37.13;;
59294;SDS011;45067;44.654;20.200;2022-12-24T15:29:26;56.55;;;38.08;;
59294;SDS011;45067;44.654;20.200;2022-12-24T15:31:53;56.03;;;36.63;;
59294;SDS011;45067;44.654;20.200;2022-12-24T15:34:26;58.17;;;37.20;;
59294;SDS011;45067;44.654;20.200;2022-12-24T15:36:59;55.70;;;35.13;;
59294;SDS011;45067;44.654;20.200;2022-12-24T15:39:25;50.08;;;32.10;;
59294;SDS011;45067;44.654;20.200;2022-12-24T15:41:51;51.70;;;32.42;;
59294;SDS011;45067;44.654;20.200;2022-12-24T15:44:36;45.85;;;29.25;;
59294;SDS011;45067;44.654;20.200;2022-12-24T15:47:04;45.00;;;30.30;;
59294;SDS011;45067;44.654;20.200;2022-12-24T15:49:31;45.63;;;28.48;;
59294;SDS011;45067;44.654;20.200;2022-12-24T15:52:05;41.20;;;28.33;;
59294;SDS011;45067;44.654;20.200;2022-12-24T15:54:33;44.10;;;29.65;;
59294;SDS011;45067;44.654;20.200;2022-12-24T15:56:59;46.38;;;30.90;;
59294;SDS011;45067;44.654;20.200;2022-12-24T15:59:36;42.38;;;28.70;;
59294;SDS011;45067;44.654;20.200;2022-12-24T16:02:44;47.53;;;31.50;;
59294;SDS011;45067;44.654;20.200;2022-12-24T16:04:51;42.55;;;28.35;;
59294;SDS011;45067;44.654;20.200;2022-12-24T16:07:24;43.95;;;30.27;;
59294;SDS011;45067;44.654;20.200;2022-12-24T16:09:50;43.00;;;29.48;;
59294;SDS011;45067;44.654;20.200;2022-12-24T16:12:21;43.75;;;28.65;;
59294;SDS011;45067;44.654;20.200;2022-12-24T16:14:49;44.90;;;29.05;;
59294;SDS011;45067;44.654;20.200;2022-12-24T16:17:20;46.78;;;30.50;;
59294;SDS011;45067;44.654;20.200;2022-12-24T16:19:48;52.10;;;30.48;;
59294;SDS011;45067;44.654;20.200;2022-12-24T16:22:16;38.67;;;25.00;;
59294;SDS011;45067;44.654;20.200;2022-12-24T16:24:55;42.30;;;27.38;;
59294;SDS011;45067;44.654;20.200;2022-12-24T16:27:21;55.05;;;36.10;;
59294;SDS011;45067;44.654;20.200;2022-12-24T16:29:47;44.13;;;26.80;;
59294;SDS011;45067;44.654;20.200;2022-12-24T16:32:21;52.38;;;33.88;;
59294;SDS011;45067;44.654;20.200;2022-12-24T16:34:49;49.63;;;31.98;;
59294;SDS011;45067;44.654;20.200;2022-12-24T16:37:15;47.95;;;31.42;;
59294;SDS011;45067;44.654;20.200;2022-12-24T16:39:41;54.78;;;34.72;;
59294;SDS011;45067;44.654;20.200;2022-12-24T16:42:08;53.08;;;35.95;;
59294;SDS011;45067;44.654;20.200;2022-12-24T16:44:53;81.63;;;53.90;;
59294;SDS011;45067;44.654;20.200;2022-12-24T16:47:23;114.40;;;66.88;;
59294;SDS011;45067;44.654;20.200;2022-12-24T16:49:50;118.63;;;73.28;;
59294;SDS011;45067;44.654;20.200;2022-12-24T16:52:17;119.45;;;75.38;;
59294;SDS011;45067;44.654;20.200;2022-12-24T16:54:46;112.93;;;72.00;;
59294;SDS011;45067;44.654;20.200;2022-12-24T16:57:12;88.93;;;57.67;;
59294;SDS011;45067;44.654;20.200;2022-12-24T16:59:38;79.15;;;51.03;;
59294;SDS011;45067;44.654;20.200;2022-12-24T17:02:04;75.13;;;50.13;;
59294;SDS011;45067;44.654;20.200;2022-12-24T17:04:31;47.55;;;35.05;;
59294;SDS011;45067;44.654;20.200;2022-12-24T17:06:57;47.92;;;34.95;;
59294;SDS011;45067;44.654;20.200;2022-12-24T17:09:23;49.42;;;34.33;;
59294;SDS011;45067;44.654;20.200;2022-12-24T17:11:49;46.75;;;32.78;;
59294;SDS011;45067;44.654;20.200;2022-12-24T17:14:15;42.78;;;28.85;;
59294;SDS011;45067;44.654;20.200;2022-12-24T17:16:41;56.25;;;31.30;;
59294;SDS011;45067;44.654;20.200;2022-12-24T17:19:07;49.75;;;35.42;;
59294;SDS011;45067;44.654;20.200;2022-12-24T17:21:33;53.60;;;35.28;;
59294;SDS011;45067;44.654;20.200;2022-12-24T17:24:00;55.38;;;38.47;;
59294;SDS011;45067;44.654;20.200;2022-12-24T17:26:26;55.15;;;37.08;;
59294;SDS011;45067;44.654;20.200;2022-12-24T17:28:52;50.75;;;35.25;;
59294;SDS011;45067;44.654;20.200;2022-12-24T17:31:19;55.70;;;38.15;;
59294;SDS011;45067;44.654;20.200;2022-12-24T17:33:46;65.63;;;41.83;;
59294;SDS011;45067;44.654;20.200;2022-12-24T17:36:13;61.53;;;42.45;;
59294;SDS011;45067;44.654;20.200;2022-12-24T17:38:39;62.05;;;40.40;;
59294;SDS011;45067;44.654;20.200;2022-12-24T17:41:06;77.93;;;47.63;;
59294;SDS011;45067;44.654;20.200;2022-12-24T17:43:35;76.70;;;49.92;;
59294;SDS011;45067;44.654;20.200;2022-12-24T17:46:20;88.68;;;56.60;;
59294;SDS011;45067;44.654;20.200;2022-12-24T17:48:47;108.03;;;66.78;;
59294;SDS011;45067;44.654;20.200;2022-12-24T17:51:14;113.72;;;68.45;;
59294;SDS011;45067;44.654;20.200;2022-12-24T17:53:40;103.55;;;65.32;;
59294;SDS011;45067;44.654;20.200;2022-12-24T17:56:07;125.60;;;76.82;;
59294;SDS011;45067;44.654;20.200;2022-12-24T17:58:34;126.55;;;80.32;;
59294;SDS011;45067;44.654;20.200;2022-12-24T18:01:01;124.63;;;77.97;;
59294;SDS011;45067;44.654;20.200;2022-12-24T18:03:27;122.57;;;77.80;;
59294;SDS011;45067;44.654;20.200;2022-12-24T18:05:53;120.32;;;78.43;;
59294;SDS011;45067;44.654;20.200;2022-12-24T18:08:19;121.25;;;75.05;;
59294;SDS011;45067;44.654;20.200;2022-12-24T18:10:46;113.32;;;75.13;;
59294;SDS011;45067;44.654;20.200;2022-12-24T18:13:12;132.68;;;85.18;;
59294;SDS011;45067;44.654;20.200;2022-12-24T18:15:39;116.00;;;74.30;;
59294;SDS011;45067;44.654;20.200;2022-12-24T18:18:10;116.90;;;76.60;;
59294;SDS011;45067;44.654;20.200;2022-12-24T18:20:38;103.78;;;68.75;;
59294;SDS011;45067;44.654;20.200;2022-12-24T18:23:05;108.22;;;69.00;;
59294;SDS011;45067;44.654;20.200;2022-12-24T18:25:31;112.88;;;71.05;;
59294;SDS011;45067;44.654;20.200;2022-12-24T18:27:57;103.88;;;69.10;;
59294;SDS011;45067;44.654;20.200;2022-12-24T18:30:24;117.68;;;74.75;;